Time;durP1;ratioP1;P1;durP2;ratioP2;P2;SDS_P1;SDS_P2;PMS_P1;PMS_P2;Temp;Humidity;BMP_temperature;BMP_pressure;BME280_temperature;BME280_humidity;BME280_pressure;Samples;Min_cycle;Max_cycle;Signal;HPM_P1;HPM_P2
2024/01/10 00:03:14;;;;;;;18.20;13.83;;;;;;;-2.59;100.00;103555.63;6292002;28;20317;-68
2024/01/10 00:06:35;;;;;;;13.33;11.97;;;;;;;-2.55;100.00;103547.75;6298612;28;20230;-68
2024/01/10 00:09:57;;;;;;;18.50;14.57;;;;;;;-2.57;100.00;103548.59;6305498;28;20752;-67
2024/01/10 00:13:19;;;;;;;15.03;13.50;;;;;;;-2.61;100.00;103549.44;6298231;28;20250;-67
2024/01/10 00:16:40;;;;;;;15.83;14.23;;;;;;;-2.65;100.00;103552.94;6301117;28;20325;-67
2024/01/10 00:20:01;;;;;;;17.30;15.47;;;;;;;-2.82;100.00;103554.53;6293468;28;20259;-68
2024/01/10 00:23:23;;;;;;;14.40;13.00;;;;;;;-2.88;100.00;103544.78;6295143;28;20236;-66
2024/01/10 00:26:43;;;;;;;15.60;13.93;;;;;;;-2.90;100.00;103554.44;6293533;28;20234;-67
2024/01/10 00:30:08;;;;;;;14.60;13.10;;;;;;;-2.90;100.00;103556.22;6289349;27;20234;-68
2024/01/10 00:33:29;;;;;;;17.53;14.27;;;;;;;-3.01;100.00;103550.84;6285591;28;20234;-68
2024/01/10 00:36:50;;;;;;;14.70;13.23;;;;;;;-2.99;100.00;103551.72;6290936;28;20234;-68
2024/01/10 00:40:11;;;;;;;12.87;11.50;;;;;;;-2.87;100.00;103554.47;6294763;28;20309;-68
2024/01/10 00:43:32;;;;;;;15.20;12.17;;;;;;;-2.89;100.00;103553.59;6294220;28;20231;-68
2024/01/10 00:46:55;;;;;;;16.87;15.20;;;;;;;-2.96;100.00;103554.38;6296393;28;20230;-67
2024/01/10 00:50:16;;;;;;;17.73;12.53;;;;;;;-2.96;100.00;103551.75;6292442;28;20226;-68
2024/01/10 00:53:38;;;;;;;14.43;12.37;;;;;;;-2.90;100.00;103550.94;6278861;28;20238;-68
2024/01/10 00:56:59;;;;;;;15.73;13.13;;;;;;;-2.90;100.00;103546.53;6292892;28;20227;-68
2024/01/10 01:00:20;;;;;;;16.10;14.20;;;;;;;-2.87;100.00;103557.13;6286472;28;20723;-68
2024/01/10 01:03:42;;;;;;;17.63;15.10;;;;;;;-3.01;100.00;103550.84;6291782;28;20235;-67
2024/01/10 01:07:03;;;;;;;16.30;13.87;;;;;;;-3.02;100.00;103556.97;6291964;28;20317;-68
2024/01/10 01:10:24;;;;;;;16.83;14.40;;;;;;;-3.01;100.00;103544.66;6293854;28;20505;-69
2024/01/10 01:13:45;;;;;;;14.43;12.93;;;;;;;-3.00;100.00;103551.72;6297436;28;20230;-68
2024/01/10 01:17:06;;;;;;;16.53;14.77;;;;;;;-2.94;100.00;103555.28;6291457;28;20229;-68
2024/01/10 01:20:28;;;;;;;16.43;14.93;;;;;;;-2.88;100.00;103551.84;6289459;28;20234;-67
2024/01/10 01:23:49;;;;;;;15.93;13.70;;;;;;;-2.95;100.00;103558.81;6289953;28;20608;-68
2024/01/10 01:27:10;;;;;;;15.50;13.87;;;;;;;-2.99;100.00;103556.13;6301057;28;20238;-67
2024/01/10 01:30:31;;;;;;;15.43;13.87;;;;;;;-2.97;100.00;103557.91;6298329;28;20710;-68
2024/01/10 01:33:52;;;;;;;16.13;14.10;;;;;;;-3.01;100.00;103549.94;6301470;28;20313;-68
2024/01/10 01:37:15;;;;;;;17.33;15.13;;;;;;;-3.00;100.00;103546.44;6307010;28;20266;-67
2024/01/10 01:40:35;;;;;;;14.20;12.73;;;;;;;-3.01;100.00;103555.22;6297381;28;20313;-68
2024/01/10 01:43:56;;;;;;;16.27;13.63;;;;;;;-3.07;100.00;103552.53;6289710;28;20254;-68
2024/01/10 01:47:17;;;;;;;16.17;13.70;;;;;;;-3.10;100.00;103550.72;6288984;28;20604;-67
2024/01/10 01:50:40;;;;;;;13.43;11.70;;;;;;;-3.06;100.00;103551.63;6287887;28;20614;-67
2024/01/10 01:54:02;;;;;;;16.00;13.03;;;;;;;-3.19;100.00;103553.25;6285096;28;20231;-68
2024/01/10 01:57:23;;;;;;;12.00;9.40;;;;;;;-3.30;100.00;103549.66;6289195;28;20618;-68
2024/01/10 02:00:45;;;;;;;13.70;12.30;;;;;;;-3.32;100.00;103544.31;6288808;28;20313;-69
2024/01/10 02:04:06;;;;;;;13.80;11.50;;;;;;;-3.45;100.00;103541.56;6291464;28;20231;-67
2024/01/10 02:07:28;;;;;;;17.00;12.57;;;;;;;-3.41;100.00;103549.53;6283576;28;20254;-68
2024/01/10 02:10:50;;;;;;;14.30;11.27;;;;;;;-3.42;100.00;103560.91;6288275;28;20234;-67
2024/01/10 02:14:11;;;;;;;13.63;12.30;;;;;;;-3.29;100.00;103547.00;6283846;28;20227;-67
2024/01/10 02:17:32;;;;;;;14.63;10.03;;;;;;;-3.33;100.00;103552.22;6290952;28;20242;-67
2024/01/10 02:20:53;;;;;;;16.93;12.67;;;;;;;-3.35;100.00;103554.88;6285672;28;20502;-69
2024/01/10 02:24:14;;;;;;;15.67;12.60;;;;;;;-3.31;100.00;103546.13;6544752;22;20231;-67
2024/01/10 02:27:36;;;;;;;17.53;13.67;;;;;;;-3.30;100.00;103545.22;6262271;28;20235;-67
2024/01/10 02:30:58;;;;;;;14.17;12.00;;;;;;;-3.25;100.00;103533.00;6269375;28;20852;-68
2024/01/10 02:34:19;;;;;;;12.57;10.50;;;;;;;-3.48;100.00;103542.41;6240936;28;20228;-67
2024/01/10 02:37:40;;;;;;;11.50;10.30;;;;;;;-3.48;100.00;103539.75;6265625;28;20232;-67
2024/01/10 02:41:02;;;;;;;11.60;10.50;;;;;;;-3.35;100.00;103538.16;6259967;28;20243;-68
2024/01/10 02:44:24;;;;;;;13.60;10.47;;;;;;;-3.34;100.00;103535.53;6231668;28;20244;-67
2024/01/10 02:47:46;;;;;;;11.57;8.50;;;;;;;-3.54;100.00;103544.06;6229170;28;20583;-66
2024/01/10 02:51:06;;;;;;;8.67;7.90;;;;;;;-3.52;100.00;103535.31;6225902;28;20228;-66
2024/01/10 02:54:27;;;;;;;10.20;8.97;;;;;;;-3.44;100.00;103535.41;6236995;28;20533;-68
2024/01/10 02:57:48;;;;;;;13.07;9.43;;;;;;;-3.35;100.00;103530.25;6231268;28;20223;-67
2024/01/10 03:01:10;;;;;;;11.90;9.53;;;;;;;-3.41;100.00;103543.34;6235564;28;20230;-68
2024/01/10 03:04:31;;;;;;;11.70;10.47;;;;;;;-3.31;100.00;103535.56;6238511;28;20320;-68
2024/01/10 03:07:52;;;;;;;8.87;7.50;;;;;;;-3.38;100.00;103539.00;6241147;28;20323;-68
2024/01/10 03:11:13;;;;;;;8.70;7.70;;;;;;;-3.42;100.00;103547.75;6234838;28;20227;-68
2024/01/10 03:14:34;;;;;;;9.53;7.43;;;;;;;-3.35;100.00;103535.50;6233416;28;20546;-68
2024/01/10 03:17:56;;;;;;;7.97;7.13;;;;;;;-3.34;100.00;103529.38;6238013;28;20331;-69
2024/01/10 03:21:22;;;;;;;9.53;8.30;;;;;;;-3.25;100.00;103535.63;6238595;28;20237;-68
2024/01/10 03:24:43;;;;;;;10.10;8.70;;;;;;;-3.25;100.00;103535.63;6232559;28;20263;-66
2024/01/10 03:28:04;;;;;;;7.83;6.60;;;;;;;-3.19;100.00;103536.56;6223599;28;20661;-67
2024/01/10 03:31:25;;;;;;;12.80;11.50;;;;;;;-3.57;100.00;103536.16;6235286;28;20232;-67
2024/01/10 03:34:51;;;;;;;8.60;7.70;;;;;;;-3.57;100.00;103531.78;6234031;28;20235;-67
2024/01/10 03:38:12;;;;;;;14.10;8.83;;;;;;;-3.41;100.00;103520.53;6237008;28;20491;-68
2024/01/10 03:41:33;;;;;;;11.17;9.43;;;;;;;-3.42;100.00;103528.44;6235595;28;20243;-68
2024/01/10 03:44:54;;;;;;;12.17;11.07;;;;;;;-3.37;100.00;103517.06;6227130;28;20254;-67
2024/01/10 03:48:14;;;;;;;9.33;8.43;;;;;;;-3.43;100.00;103519.63;6236062;28;20237;-67
2024/01/10 03:51:37;;;;;;;11.30;10.10;;;;;;;-3.45;100.00;103517.84;6235747;28;20227;-67
2024/01/10 03:54:58;;;;;;;10.73;9.63;;;;;;;-3.38;100.00;103504.72;6229595;28;20243;-67
2024/01/10 03:58:19;;;;;;;10.67;9.57;;;;;;;-3.41;100.00;103509.09;6235551;28;20224;-68
2024/01/10 04:01:40;;;;;;;11.70;10.47;;;;;;;-3.34;100.00;103510.94;6233611;28;20557;-68
2024/01/10 04:05:01;;;;;;;10.37;9.13;;;;;;;-3.31;100.00;103518.84;6237484;28;20239;-67
2024/01/10 04:08:24;;;;;;;12.50;10.07;;;;;;;-3.22;100.00;103515.44;6231971;28;20236;-68
2024/01/10 04:11:45;;;;;;;14.20;9.63;;;;;;;-3.09;100.00;103509.41;6232489;28;20605;-67
2024/01/10 04:15:07;;;;;;;11.60;9.33;;;;;;;-3.13;100.00;103507.63;6237587;28;20288;-67
2024/01/10 04:18:28;;;;;;;13.00;11.50;;;;;;;-3.30;100.00;103510.09;6235894;28;20239;-68
2024/01/10 04:21:49;;;;;;;10.00;8.77;;;;;;;-3.21;100.00;103514.59;6237360;28;20231;-67
2024/01/10 04:25:12;;;;;;;11.70;10.50;;;;;;;-3.38;100.00;103504.72;6234456;28;20232;-68
2024/01/10 04:28:33;;;;;;;14.30;12.80;;;;;;;-3.12;100.00;103502.34;6235181;28;20227;-68
2024/01/10 04:31:54;;;;;;;15.10;11.10;;;;;;;-2.87;100.00;103498.19;6231325;28;20680;-69
2024/01/10 04:35:15;;;;;;;13.13;10.80;;;;;;;-2.63;100.00;103501.88;6231159;28;20239;-67
2024/01/10 04:38:36;;;;;;;17.50;15.80;;;;;;;-2.54;100.00;103504.63;6245078;28;20228;-68
2024/01/10 04:41:58;;;;;;;13.30;11.20;;;;;;;-2.51;100.00;103501.13;6244236;28;20232;-68
2024/01/10 04:45:21;;;;;;;12.90;9.77;;;;;;;-2.33;100.00;103500.34;6244356;28;20232;-68
2024/01/10 04:48:42;;;;;;;13.83;11.10;;;;;;;-2.32;100.00;103497.72;6241774;28;20260;-67
2024/01/10 04:52:03;;;;;;;19.80;13.63;;;;;;;-2.23;100.00;103495.13;6239572;28;20220;-68
2024/01/10 04:55:25;;;;;;;40.00;31.93;;;;;;;-2.08;100.00;103494.31;6237345;28;20232;-66
2024/01/10 04:58:47;;;;;;;29.70;23.37;;;;;;;-2.12;100.00;103490.78;6244769;28;20505;-67
2024/01/10 05:02:09;;;;;;;20.07;15.90;;;;;;;-2.17;100.00;103484.59;6233498;28;20828;-68
2024/01/10 05:05:30;;;;;;;12.73;11.40;;;;;;;-2.24;100.00;103482.81;6234789;28;20307;-68
2024/01/10 05:08:51;;;;;;;22.17;16.10;;;;;;;-2.05;100.00;103483.78;6249537;28;20228;-68
2024/01/10 05:12:12;;;;;;;25.30;22.63;;;;;;;-1.95;100.00;103485.59;6239921;28;20398;-68
2024/01/10 05:15:34;;;;;;;16.83;13.27;;;;;;;-1.99;100.00;103478.53;6243306;28;20228;-68
2024/01/10 05:18:55;;;;;;;9.00;7.87;;;;;;;-2.11;100.00;103483.75;6237719;28;20248;-68
2024/01/10 05:22:16;;;;;;;11.07;9.00;;;;;;;-2.22;100.00;103488.09;6241507;28;20331;-68
2024/01/10 05:25:37;;;;;;;7.30;6.57;;;;;;;-2.23;100.00;103483.69;6241038;28;20730;-67
2024/01/10 05:28:58;;;;;;;8.33;6.70;;;;;;;-2.16;100.00;103482.84;6234753;28;20232;-66
2024/01/10 05:32:20;;;;;;;10.40;7.57;;;;;;;-2.02;100.00;103479.38;6237171;28;20228;-68
2024/01/10 05:35:41;;;;;;;9.33;8.17;;;;;;;-1.97;100.00;103485.59;6232479;28;20239;-67
2024/01/10 05:39:02;;;;;;;8.97;7.97;;;;;;;-2.07;100.00;103477.63;6243865;28;20228;-66
2024/01/10 05:42:23;;;;;;;8.27;6.93;;;;;;;-2.10;100.00;103477.59;6237216;28;20227;-66
2024/01/10 05:45:44;;;;;;;10.30;8.40;;;;;;;-2.00;100.00;103479.41;6241360;28;20319;-66
2024/01/10 05:49:06;;;;;;;7.17;6.53;;;;;;;-1.84;100.00;103466.28;6238273;28;20228;-67
2024/01/10 05:52:27;;;;;;;8.70;7.13;;;;;;;-2.23;100.00;103476.63;6238158;28;20304;-68
2024/01/10 05:55:48;;;;;;;8.27;6.33;;;;;;;-2.24;100.00;103479.28;6239254;28;20231;-67
2024/01/10 05:59:11;;;;;;;10.70;7.13;;;;;;;-2.29;100.00;103481.88;6238280;28;20247;-67
2024/01/10 06:02:32;;;;;;;7.63;6.90;;;;;;;-2.10;100.00;103475.84;6227717;28;20327;-67
2024/01/10 06:05:54;;;;;;;9.37;8.47;;;;;;;-2.27;100.00;103487.19;6233617;28;20228;-67
2024/01/10 06:09:21;;;;;;;8.60;6.43;;;;;;;-2.33;100.00;103477.47;6234242;28;20836;-67
2024/01/10 06:12:42;;;;;;;6.27;5.23;;;;;;;-2.17;100.00;103476.66;6242050;28;20228;-66
2024/01/10 06:16:03;;;;;;;5.93;5.23;;;;;;;-2.22;100.00;103480.16;6227538;28;20235;-67
2024/01/10 06:19:24;;;;;;;6.30;5.70;;;;;;;-2.15;100.00;103482.84;6233729;28;20228;-68
2024/01/10 06:22:47;;;;;;;7.20;6.60;;;;;;;-2.21;100.00;103474.03;6237577;28;20307;-67
2024/01/10 06:26:08;;;;;;;4.83;4.47;;;;;;;-2.07;100.00;103472.31;6232567;28;20227;-67
2024/01/10 06:29:29;;;;;;;17.57;13.03;;;;;;;-2.14;100.00;103467.88;6241750;28;20239;-67
2024/01/10 06:32:50;;;;;;;9.77;7.97;;;;;;;-1.99;100.00;103471.50;6230876;28;20236;-67
2024/01/10 06:36:11;;;;;;;6.63;6.00;;;;;;;-1.88;100.00;103459.19;6237775;28;20244;-68
2024/01/10 06:39:33;;;;;;;7.97;7.20;;;;;;;-1.85;100.00;103472.44;6237302;28;20610;-67
2024/01/10 06:42:55;;;;;;;6.83;5.97;;;;;;;-1.78;100.00;103474.22;6236789;28;20318;-66
2024/01/10 06:46:16;;;;;;;6.77;5.87;;;;;;;-1.80;100.00;103475.09;6234696;28;20247;-67
2024/01/10 06:49:38;;;;;;;7.43;6.43;;;;;;;-1.76;100.00;103477.75;6229626;28;20232;-68
2024/01/10 06:52:59;;;;;;;8.80;7.65;;;;;;;-1.71;100.00;103476.00;6227501;28;20754;-68
2024/01/10 06:56:21;;;;;;;7.17;6.53;;;;;;;-1.72;100.00;103474.25;6237870;28;20223;-68
2024/01/10 06:59:42;;;;;;;8.10;7.33;;;;;;;-1.66;100.00;103476.91;6203920;28;20335;-68
2024/01/10 07:03:03;;;;;;;17.07;13.87;;;;;;;-1.64;100.00;103475.16;6237807;28;22616;-65
2024/01/10 07:06:25;;;;;;;8.47;7.57;;;;;;;-1.57;100.00;103477.81;6231727;28;20227;-66
2024/01/10 07:09:46;;;;;;;9.90;8.85;;;;;;;-1.94;100.00;103479.44;6245849;28;20705;-67
2024/01/10 07:13:08;;;;;;;8.67;7.87;;;;;;;-2.02;100.00;103473.22;6229751;28;20383;-66
2024/01/10 07:16:29;;;;;;;8.52;7.72;;;;;;;-2.03;100.00;103469.72;6229470;28;20987;-68
2024/01/10 07:19:50;;;;;;;10.63;9.03;;;;;;;-1.92;100.00;103470.63;6238672;28;20529;-67
2024/01/10 07:23:11;;;;;;;7.90;7.10;;;;;;;-1.99;100.00;103474.13;6247016;28;20542;-64
2024/01/10 07:26:32;;;;;;;8.27;7.57;;;;;;;-1.98;100.00;103472.38;6252520;28;20345;-68
2024/01/10 07:29:54;;;;;;;6.13;5.53;;;;;;;-1.91;100.00;103482.09;6242042;28;20228;-67
2024/01/10 07:33:16;;;;;;;6.13;5.57;;;;;;;-2.08;100.00;103476.72;6249434;28;20489;-66
2024/01/10 07:36:42;;;;;;;9.43;7.50;;;;;;;-2.27;100.00;103479.28;6253431;28;20494;-67
2024/01/10 07:40:04;;;;;;;9.13;8.23;;;;;;;-1.90;100.00;103482.09;6226259;28;20717;-67
2024/01/10 07:43:26;;;;;;;8.47;7.47;;;;;;;-2.11;100.00;103482.00;6253112;28;20231;-68
2024/01/10 07:46:50;;;;;;;9.30;6.50;;;;;;;-2.10;100.00;103474.94;6245904;28;20225;-67
2024/01/10 07:50:14;;;;;;;6.97;5.93;;;;;;;-1.97;100.00;103477.66;6245001;28;20239;-66
2024/01/10 07:53:35;;;;;;;7.60;6.40;;;;;;;-2.06;100.00;103472.31;6252506;28;20232;-66
2024/01/10 07:56:56;;;;;;;7.60;6.80;;;;;;;-2.04;100.00;103480.25;6246112;28;20224;-66
2024/01/10 08:00:20;;;;;;;7.27;6.47;;;;;;;-2.04;100.00;103480.25;6248332;28;20228;-66
2024/01/10 08:03:42;;;;;;;8.57;7.77;;;;;;;-1.88;100.00;103485.63;6252401;28;20599;-67
2024/01/10 08:07:04;;;;;;;10.53;8.00;;;;;;;-1.99;100.00;103500.56;6248023;28;20595;-66
2024/01/10 08:10:24;;;;;;;7.60;6.13;;;;;;;-2.07;100.00;103497.00;6252310;28;20228;-66
2024/01/10 08:13:45;;;;;;;10.23;9.17;;;;;;;-1.84;100.00;103505.03;6247801;28;20740;-68
2024/01/10 08:17:06;;;;;;;12.97;8.80;;;;;;;-1.88;100.00;103511.19;6248662;28;20236;-67
2024/01/10 08:20:29;;;;;;;8.43;7.57;;;;;;;-1.93;100.00;103507.63;6245343;28;20240;-67
2024/01/10 08:23:50;;;;;;;8.70;7.80;;;;;;;-1.83;100.00;103507.66;6252776;28;20604;-68
2024/01/10 08:27:11;;;;;;;9.63;8.00;;;;;;;-1.86;100.00;103501.50;6257257;28;20231;-67
2024/01/10 08:30:32;;;;;;;12.30;11.02;;;;;;;-2.15;100.00;103495.19;6241815;28;20693;-68
2024/01/10 08:33:54;;;;;;;11.73;9.75;;;;;;;-2.02;100.00;103505.81;6250372;28;21458;-68
2024/01/10 08:37:17;;;;;;;14.57;12.07;;;;;;;-1.60;100.00;103497.19;6254702;28;20248;-68
2024/01/10 08:40:37;;;;;;;11.23;10.13;;;;;;;-1.58;100.00;103497.19;6247003;28;20216;-67
2024/01/10 08:43:58;;;;;;;9.43;7.77;;;;;;;-1.43;100.00;103495.47;6249581;28;20609;-66
2024/01/10 08:47:19;;;;;;;12.90;9.57;;;;;;;-1.43;100.00;103497.22;6252327;28;20264;-67
2024/01/10 08:50:41;;;;;;;8.17;5.57;;;;;;;-1.52;100.00;103500.72;6257589;28;20905;-67
2024/01/10 08:54:04;;;;;;;6.90;6.27;;;;;;;-1.53;100.00;103496.34;6249547;28;20323;-67
2024/01/10 08:57:26;;;;;;;7.53;6.73;;;;;;;-1.51;100.00;103496.34;6241042;28;20235;-68
2024/01/10 09:00:47;;;;;;;7.80;5.53;;;;;;;-1.23;100.00;103499.03;6254079;28;20228;-67
2024/01/10 09:04:08;;;;;;;9.33;6.73;;;;;;;-1.35;100.00;103493.72;6251535;28;20224;-68
2024/01/10 09:07:30;;;;;;;6.37;5.77;;;;;;;-1.25;100.00;103495.50;6257673;28;20331;-69
2024/01/10 09:10:52;;;;;;;7.13;6.37;;;;;;;-1.15;100.00;103486.69;6241698;28;20585;-68
2024/01/10 09:14:13;;;;;;;7.73;5.77;;;;;;;-1.03;100.00;103480.56;6256627;28;20255;-68
2024/01/10 09:17:34;;;;;;;6.87;6.27;;;;;;;-0.90;100.00;103477.91;6255749;28;20283;-67
2024/01/10 09:20:55;;;;;;;7.77;6.43;;;;;;;-1.06;100.00;103472.59;6251976;28;20227;-68
2024/01/10 09:24:16;;;;;;;7.23;6.60;;;;;;;-1.44;100.00;103476.97;6219673;28;20243;-68
2024/01/10 09:27:41;;;;;;;8.67;7.20;;;;;;;-1.19;100.00;103470.84;6248056;28;20267;-68
2024/01/10 09:31:02;;;;;;;6.97;6.37;;;;;;;-1.39;100.00;103468.16;6246410;28;20264;-68
2024/01/10 09:34:23;;;;;;;7.10;6.33;;;;;;;-1.49;100.00;103465.47;6255445;28;20232;-68
2024/01/10 09:37:45;;;;;;;6.90;6.10;;;;;;;-1.31;100.00;103460.22;6253317;28;20328;-67
2024/01/10 09:41:06;;;;;;;6.03;5.40;;;;;;;-1.05;100.00;103471.72;6247112;28;20618;-68
2024/01/10 09:44:30;;;;;;;9.67;6.23;;;;;;;-0.89;100.00;103463.78;6254164;28;20227;-68
2024/01/10 09:47:55;;;;;;;10.00;7.47;;;;;;;-0.87;100.00;103464.69;6243893;28;20228;-67
2024/01/10 09:51:16;;;;;;;10.27;7.10;;;;;;;-0.94;100.00;103456.75;6260047;28;20275;-67
2024/01/10 09:54:41;;;;;;;7.97;7.17;;;;;;;-0.78;100.00;103452.31;6252326;28;20516;-67
2024/01/10 09:58:03;;;;;;;10.47;8.10;;;;;;;-0.77;100.00;103451.44;6240606;28;20231;-68
2024/01/10 10:01:26;;;;;;;8.80;7.90;;;;;;;-0.63;100.00;103454.97;6230838;28;20314;-68
2024/01/10 10:04:55;;;;;;;10.60;7.67;;;;;;;-0.53;100.00;103456.69;6250363;28;20224;-68
2024/01/10 10:08:21;;;;;;;11.33;9.97;;;;;;;-0.22;100.00;103459.28;6247933;28;20223;-68
2024/01/10 10:11:43;;;;;;;9.43;8.50;;;;;;;-0.89;100.00;103462.91;6255109;28;20233;-68
2024/01/10 10:15:12;;;;;;;8.57;7.60;;;;;;;-1.15;100.00;103460.25;6250871;28;20473;-68
2024/01/10 10:18:34;;;;;;;8.17;7.10;;;;;;;-1.29;100.00;103462.00;6248202;28;20231;-69
2024/01/10 10:22:09;;;;;;;7.83;7.03;;;;;;;-1.00;100.00;103462.03;6250275;28;20590;-67
2024/01/10 10:25:32;;;;;;;11.43;7.87;;;;;;;-0.59;100.00;103449.66;6245671;28;20231;-66
2024/01/10 10:28:53;;;;;;;8.27;7.30;;;;;;;0.73;100.00;103445.53;6235705;28;20669;-67
2024/01/10 10:32:18;;;;;;;7.13;6.10;;;;;;;0.89;100.00;103437.47;6247988;28;20228;-66
2024/01/10 10:35:40;;;;;;;10.07;8.57;;;;;;;0.95;100.00;103443.63;6250768;28;20247;-68
2024/01/10 10:39:03;;;;;;;12.53;8.33;;;;;;;1.49;100.00;103443.13;6252699;28;20600;-68
2024/01/10 10:42:26;;;;;;;9.40;8.37;;;;;;;2.50;100.00;103435.66;6250176;28;20833;-68
2024/01/10 10:45:49;;;;;;;10.50;9.50;;;;;;;1.84;100.00;103436.50;6239502;28;20770;-67
2024/01/10 10:49:12;;;;;;;10.47;9.37;;;;;;;2.51;100.00;103442.75;6249426;28;20240;-67
2024/01/10 10:52:35;;;;;;;7.23;6.10;;;;;;;3.01;100.00;103447.28;6251683;28;20233;-67
2024/01/10 10:55:58;;;;;;;9.53;8.60;;;;;;;3.17;100.00;103449.66;6244141;28;20258;-66
2024/01/10 10:59:21;;;;;;;9.50;6.07;;;;;;;2.49;100.00;103449.88;6250240;28;20231;-67
2024/01/10 11:02:42;;;;;;;8.67;7.87;;;;;;;1.51;100.00;103457.28;6244205;28;20902;-67
2024/01/10 11:06:04;;;;;;;11.00;9.53;;;;;;;0.48;100.00;103459.00;6248754;28;21189;-66
2024/01/10 11:09:27;;;;;;;10.97;7.93;;;;;;;0.20;100.00;103460.00;6235397;28;20239;-67
2024/01/10 11:13:06;;;;;;;10.00;9.10;;;;;;;3.87;100.00;103441.28;6249293;28;20617;-67
2024/01/10 11:16:57;;;;;;;8.80;7.90;;;;;;;5.35;100.00;103443.16;6249716;28;20223;-67
2024/01/10 11:20:33;;;;;;;9.00;7.60;;;;;;;4.56;100.00;103438.00;6252512;28;20231;-66
2024/01/10 11:23:57;;;;;;;10.88;9.77;;;;;;;2.77;100.00;103453.91;6247699;28;20851;-67
2024/01/10 11:27:19;;;;;;;9.30;8.40;;;;;;;2.67;100.00;103443.41;6245663;28;20231;-66
2024/01/10 11:30:51;;;;;;;7.37;6.67;;;;;;;2.84;100.00;103434.25;6245026;28;20232;-66
2024/01/10 11:34:13;;;;;;;9.30;8.33;;;;;;;2.31;100.00;103427.06;6248522;28;20875;-66
2024/01/10 11:37:40;;;;;;;8.10;7.23;;;;;;;2.18;100.00;103432.56;6243314;28;20335;-67
2024/01/10 11:41:01;;;;;;;5.33;4.93;;;;;;;1.75;100.00;103434.88;6254351;28;20224;-66
2024/01/10 11:44:50;;;;;;;8.73;6.80;;;;;;;1.15;100.00;103435.50;6240541;28;20330;-66
2024/01/10 11:48:11;;;;;;;8.70;7.90;;;;;;;0.63;100.00;103437.63;6248364;28;20756;-67
2024/01/10 11:51:33;;;;;;;9.03;8.13;;;;;;;0.31;100.00;103442.28;6258874;28;20742;-66
2024/01/10 11:54:54;;;;;;;9.80;8.80;;;;;;;0.61;100.00;103427.03;6236736;28;20240;-68
2024/01/10 11:58:15;;;;;;;8.77;7.93;;;;;;;0.86;100.00;103435.72;6248589;28;20228;-67
2024/01/10 12:01:39;;;;;;;10.67;9.77;;;;;;;0.84;100.00;103429.53;6244173;28;20588;-67
2024/01/10 12:05:00;;;;;;;9.30;6.73;;;;;;;0.91;100.00;103427.72;6247981;28;20228;-67
2024/01/10 12:08:21;;;;;;;24.00;19.23;;;;;;;1.15;100.00;103425.72;6237145;28;20512;-67
2024/01/10 12:11:42;;;;;;;9.07;8.17;;;;;;;1.11;100.00;103423.09;6252656;28;20236;-67
2024/01/10 12:15:04;;;;;;;6.33;5.73;;;;;;;0.83;100.00;103425.13;6245960;28;20256;-68
2024/01/10 12:18:26;;;;;;;4.97;4.40;;;;;;;0.57;100.00;103416.47;6249130;28;20235;-67
2024/01/10 12:21:49;;;;;;;6.87;6.23;;;;;;;0.50;100.00;103418.25;6249775;28;20259;-68
2024/01/10 12:25:10;;;;;;;6.00;5.50;;;;;;;0.44;100.00;103409.50;6247304;28;20315;-67
2024/01/10 12:28:31;;;;;;;5.07;4.57;;;;;;;0.35;100.00;103405.13;6249287;28;20228;-67
2024/01/10 12:31:53;;;;;;;7.60;5.67;;;;;;;0.44;100.00;103399.75;6243374;28;20595;-67
2024/01/10 12:35:20;;;;;;;5.33;4.90;;;;;;;0.34;100.00;103397.16;6240710;28;20228;-66
2024/01/10 12:38:41;;;;;;;4.67;3.87;;;;;;;0.09;100.00;103398.19;6248448;28;20232;-65
2024/01/10 12:42:02;;;;;;;6.47;4.87;;;;;;;0.05;100.00;103405.28;6251549;28;20231;-67
2024/01/10 12:45:24;;;;;;;5.53;4.40;;;;;;;0.26;100.00;103388.38;6243425;28;22957;-66
2024/01/10 12:48:45;;;;;;;5.23;4.57;;;;;;;0.70;100.00;103388.94;6250609;28;20944;-67
2024/01/10 12:52:08;;;;;;;6.23;5.60;;;;;;;0.83;100.00;103390.63;6239551;28;20243;-66
2024/01/10 12:55:29;;;;;;;6.43;5.83;;;;;;;0.87;100.00;103394.13;6245235;28;20331;-67
2024/01/10 12:58:50;;;;;;;6.80;6.20;;;;;;;0.78;100.00;103395.06;6243527;28;20228;-69
2024/01/10 13:02:11;;;;;;;12.63;10.47;;;;;;;0.61;100.00;103394.31;6251261;28;21821;-66
2024/01/10 13:05:32;;;;;;;7.67;6.87;;;;;;;0.53;100.00;103383.75;6244961;28;20236;-66
2024/01/10 13:08:54;;;;;;;6.63;5.83;;;;;;;0.75;100.00;103381.84;6254508;28;20232;-69
2024/01/10 13:12:15;;;;;;;6.13;5.53;;;;;;;1.99;100.00;103380.50;6256159;28;20228;-69
2024/01/10 13:15:36;;;;;;;6.00;5.00;;;;;;;1.87;100.00;103375.34;6256608;28;20725;-66
2024/01/10 13:18:59;;;;;;;5.70;5.20;;;;;;;1.33;100.00;103383.06;6252531;28;20236;-66
2024/01/10 13:22:20;;;;;;;8.23;6.93;;;;;;;1.00;100.00;103375.41;6243843;28;20236;-67
2024/01/10 13:25:42;;;;;;;10.67;9.63;;;;;;;0.69;100.00;103385.41;6253294;28;20252;-67
2024/01/10 13:29:03;;;;;;;7.83;7.03;;;;;;;0.65;100.00;103381.00;6252226;28;21011;-67
2024/01/10 13:32:25;;;;;;;5.40;4.90;;;;;;;0.36;100.00;103379.44;6246381;28;20224;-67
2024/01/10 13:35:46;;;;;;;5.73;5.13;;;;;;;0.42;100.00;103376.75;6247459;28;20307;-68
2024/01/10 13:39:07;;;;;;;5.97;5.30;;;;;;;0.60;100.00;103379.31;6247878;28;20234;-68
2024/01/10 13:42:30;;;;;;;7.20;6.37;;;;;;;0.58;100.00;103374.00;6248629;28;20231;-66
2024/01/10 13:45:52;;;;;;;6.00;5.43;;;;;;;0.60;100.00;103374.00;6237881;28;20529;-66
2024/01/10 13:49:14;;;;;;;7.63;6.17;;;;;;;0.42;100.00;103372.34;6253639;28;20496;-66
2024/01/10 13:52:34;;;;;;;5.93;5.40;;;;;;;0.38;100.00;103367.94;6251068;28;20311;-64
2024/01/10 13:55:56;;;;;;;6.80;6.10;;;;;;;0.44;100.00;103372.34;6248863;28;20593;-65
2024/01/10 13:59:18;;;;;;;5.97;5.33;;;;;;;0.50;100.00;103370.50;6252666;28;20231;-65
2024/01/10 14:02:39;;;;;;;6.77;6.07;;;;;;;0.53;100.00;103370.50;6250123;28;20221;-66
2024/01/10 14:06:00;;;;;;;6.03;5.43;;;;;;;0.47;100.00;103367.00;6259743;28;20220;-67
2024/01/10 14:09:21;;;;;;;7.43;6.03;;;;;;;0.28;100.00;103375.97;6250316;28;20232;-67
2024/01/10 14:12:42;;;;;;;7.50;6.90;;;;;;;0.25;100.00;103370.72;6251497;28;20562;-65
2024/01/10 14:16:04;;;;;;;9.20;8.40;;;;;;;0.15;100.00;103369.00;6251997;28;20232;-66
2024/01/10 14:19:26;;;;;;;6.13;5.57;;;;;;;0.23;100.00;103364.53;6232510;28;20232;-66
2024/01/10 14:22:46;;;;;;;6.70;6.00;;;;;;;-0.10;100.00;103357.63;6246577;28;20224;-66
2024/01/10 14:26:07;;;;;;;5.63;4.87;;;;;;;-0.11;100.00;103370.03;6252045;28;20227;-66
2024/01/10 14:29:28;;;;;;;5.17;4.33;;;;;;;-0.10;100.00;103365.56;6252615;28;20228;-66
2024/01/10 14:32:51;;;;;;;6.43;5.83;;;;;;;-0.23;100.00;103364.75;6244905;28;20231;-67
2024/01/10 14:36:12;;;;;;;7.33;6.63;;;;;;;-0.25;100.00;103363.03;6242838;28;20243;-68
2024/01/10 14:39:33;;;;;;;5.27;4.77;;;;;;;-0.18;100.00;103367.38;6250045;28;20231;-67
2024/01/10 14:42:54;;;;;;;5.70;5.10;;;;;;;-0.20;100.00;103361.22;6250984;28;20250;-67
2024/01/10 14:46:15;;;;;;;6.77;5.47;;;;;;;-0.29;100.00;103362.13;6258801;28;20235;-66
2024/01/10 14:49:37;;;;;;;6.40;5.63;;;;;;;-0.29;100.00;103356.84;6243528;28;20231;-64
2024/01/10 14:52:58;;;;;;;7.03;4.43;;;;;;;-0.40;100.00;103371.91;6250364;28;20235;-67
2024/01/10 14:56:19;;;;;;;5.20;4.47;;;;;;;-0.45;100.00;103373.69;6248362;28;20228;-66
2024/01/10 14:59:41;;;;;;;7.47;6.70;;;;;;;-0.48;100.00;103360.44;6251538;28;20256;-67
2024/01/10 15:03:03;;;;;;;6.83;6.20;;;;;;;-0.57;100.00;103370.19;6248138;28;20319;-65
2024/01/10 15:06:26;;;;;;;7.93;5.93;;;;;;;-0.52;100.00;103379.03;6252651;28;20231;-66
2024/01/10 15:09:47;;;;;;;5.50;5.00;;;;;;;-0.54;100.00;103379.00;6250090;28;20330;-65
2024/01/10 15:13:07;;;;;;;5.87;5.30;;;;;;;-0.54;100.00;103378.13;6254077;28;20235;-65
2024/01/10 15:16:28;;;;;;;5.37;4.87;;;;;;;-0.59;100.00;103383.44;6252135;28;20231;-66
2024/01/10 15:19:49;;;;;;;5.47;4.97;;;;;;;-0.65;100.00;103386.13;6246545;28;20859;-66
2024/01/10 15:23:12;;;;;;;7.53;6.23;;;;;;;-0.70;100.00;103385.22;6255317;28;20239;-66
2024/01/10 15:26:33;;;;;;;6.57;6.03;;;;;;;-0.65;100.00;103393.16;6248482;28;20238;-66